sensor_id;sensor_type;location;lat;lon;timestamp;temperature;humidity
20680;DHT22;10499;47.494;7.608;2022-10-31T00:07:37;12.00;99.90
20680;DHT22;10499;47.494;7.608;2022-10-31T00:13:53;12.00;99.90
20680;DHT22;10499;47.494;7.608;2022-10-31T00:16:39;11.90;99.90
20680;DHT22;10499;47.494;7.608;2022-10-31T00:19:19;11.80;99.90
20680;DHT22;10499;47.494;7.608;2022-10-31T00:29:53;11.50;99.90
20680;DHT22;10499;47.494;7.608;2022-10-31T00:35:51;11.50;99.90
20680;DHT22;10499;47.494;7.608;2022-10-31T00:38:32;11.60;99.90
20680;DHT22;10499;47.494;7.608;2022-10-31T00:41:11;11.50;99.90
20680;DHT22;10499;47.494;7.608;2022-10-31T00:52:29;11.50;99.90
20680;DHT22;10499;47.494;7.608;2022-10-31T00:55:26;11.50;99.90
20680;DHT22;10499;47.494;7.608;2022-10-31T00:58:11;11.40;99.90
20680;DHT22;10499;47.494;7.608;2022-10-31T01:00:53;11.30;99.90
20680;DHT22;10499;47.494;7.608;2022-10-31T01:03:57;11.20;99.90
20680;DHT22;10499;47.494;7.608;2022-10-31T01:06:49;11.20;99.90
20680;DHT22;10499;47.494;7.608;2022-10-31T01:09:46;11.30;99.90
20680;DHT22;10499;47.494;7.608;2022-10-31T01:12:21;11.40;99.90
20680;DHT22;10499;47.494;7.608;2022-10-31T01:15:32;11.50;99.90
20680;DHT22;10499;47.494;7.608;2022-10-31T01:18:14;11.50;99.90
20680;DHT22;10499;47.494;7.608;2022-10-31T01:20:42;11.50;99.90
20680;DHT22;10499;47.494;7.608;2022-10-31T01:23:27;11.40;99.90
20680;DHT22;10499;47.494;7.608;2022-10-31T01:28:58;11.40;99.90
20680;DHT22;10499;47.494;7.608;2022-10-31T01:34:58;11.40;99.90
20680;DHT22;10499;47.494;7.608;2022-10-31T01:37:55;11.30;99.90
20680;DHT22;10499;47.494;7.608;2022-10-31T01:40:43;11.30;99.90
20680;DHT22;10499;47.494;7.608;2022-10-31T01:59:40;11.40;99.90
20680;DHT22;10499;47.494;7.608;2022-10-31T02:02:17;11.40;99.90
20680;DHT22;10499;47.494;7.608;2022-10-31T02:12:35;11.20;99.90
20680;DHT22;10499;47.494;7.608;2022-10-31T02:15:22;11.20;99.90
20680;DHT22;10499;47.494;7.608;2022-10-31T02:18:10;11.20;99.90
20680;DHT22;10499;47.494;7.608;2022-10-31T02:21:11;11.10;99.90
20680;DHT22;10499;47.494;7.608;2022-10-31T02:36:30;11.10;99.90
20680;DHT22;10499;47.494;7.608;2022-10-31T02:48:37;11.30;99.90
20680;DHT22;10499;47.494;7.608;2022-10-31T02:51:15;11.20;99.90
20680;DHT22;10499;47.494;7.608;2022-10-31T02:57:35;11.10;99.90
20680;DHT22;10499;47.494;7.608;2022-10-31T03:21:57;10.90;99.90
20680;DHT22;10499;47.494;7.608;2022-10-31T03:24:32;10.90;99.90
20680;DHT22;10499;47.494;7.608;2022-10-31T03:27:17;11.00;99.90
20680;DHT22;10499;47.494;7.608;2022-10-31T03:40:14;10.80;99.90
20680;DHT22;10499;47.494;7.608;2022-10-31T03:45:45;10.90;99.90
20680;DHT22;10499;47.494;7.608;2022-10-31T03:48:41;11.00;99.90
20680;DHT22;10499;47.494;7.608;2022-10-31T04:00:29;11.20;99.90
20680;DHT22;10499;47.494;7.608;2022-10-31T04:06:56;11.10;99.90
20680;DHT22;10499;47.494;7.608;2022-10-31T04:09:55;11.00;99.90
20680;DHT22;10499;47.494;7.608;2022-10-31T04:12:32;11.00;99.90
20680;DHT22;10499;47.494;7.608;2022-10-31T04:18:09;11.00;99.90
20680;DHT22;10499;47.494;7.608;2022-10-31T04:20:38;10.90;99.90
20680;DHT22;10499;47.494;7.608;2022-10-31T04:23:23;11.00;99.90
20680;DHT22;10499;47.494;7.608;2022-10-31T04:26:07;11.00;99.90
20680;DHT22;10499;47.494;7.608;2022-10-31T04:28:42;10.90;99.90
20680;DHT22;10499;47.494;7.608;2022-10-31T04:31:14;10.90;99.90
20680;DHT22;10499;47.494;7.608;2022-10-31T04:34:08;11.00;99.90
20680;DHT22;10499;47.494;7.608;2022-10-31T04:36:39;11.10;99.90
20680;DHT22;10499;47.494;7.608;2022-10-31T04:39:16;11.10;99.90
20680;DHT22;10499;47.494;7.608;2022-10-31T04:42:14;11.10;99.90
20680;DHT22;10499;47.494;7.608;2022-10-31T04:44:59;11.10;99.90
20680;DHT22;10499;47.494;7.608;2022-10-31T04:47:35;11.10;99.90
20680;DHT22;10499;47.494;7.608;2022-10-31T04:50:23;10.90;99.90
20680;DHT22;10499;47.494;7.608;2022-10-31T04:52:52;10.90;99.90
20680;DHT22;10499;47.494;7.608;2022-10-31T04:58:13;10.90;99.90
20680;DHT22;10499;47.494;7.608;2022-10-31T05:00:39;10.90;99.90
20680;DHT22;10499;47.494;7.608;2022-10-31T05:03:05;10.90;99.90
20680;DHT22;10499;47.494;7.608;2022-10-31T05:05:31;11.00;99.90
20680;DHT22;10499;47.494;7.608;2022-10-31T05:07:57;10.90;99.90
20680;DHT22;10499;47.494;7.608;2022-10-31T05:10:25;10.90;99.90
20680;DHT22;10499;47.494;7.608;2022-10-31T05:12:53;10.90;99.90
20680;DHT22;10499;47.494;7.608;2022-10-31T05:15:21;10.80;99.90
20680;DHT22;10499;47.494;7.608;2022-10-31T05:17:47;10.80;99.90
20680;DHT22;10499;47.494;7.608;2022-10-31T05:20:15;10.80;99.90
20680;DHT22;10499;47.494;7.608;2022-10-31T05:22:46;10.80;99.90
20680;DHT22;10499;47.494;7.608;2022-10-31T05:25:12;10.80;99.90
20680;DHT22;10499;47.494;7.608;2022-10-31T05:27:41;10.80;99.90
20680;DHT22;10499;47.494;7.608;2022-10-31T05:30:08;10.80;99.90
20680;DHT22;10499;47.494;7.608;2022-10-31T05:32:39;10.80;99.90
20680;DHT22;10499;47.494;7.608;2022-10-31T05:35:08;10.80;99.90
20680;DHT22;10499;47.494;7.608;2022-10-31T05:37:37;10.80;99.90
20680;DHT22;10499;47.494;7.608;2022-10-31T05:40:05;10.80;99.90
20680;DHT22;10499;47.494;7.608;2022-10-31T05:42:31;10.80;99.90
20680;DHT22;10499;47.494;7.608;2022-10-31T05:44:57;10.70;99.90
20680;DHT22;10499;47.494;7.608;2022-10-31T05:47:26;10.80;99.90
20680;DHT22;10499;47.494;7.608;2022-10-31T05:49:51;10.80;99.90
20680;DHT22;10499;47.494;7.608;2022-10-31T05:52:17;10.70;99.90
20680;DHT22;10499;47.494;7.608;2022-10-31T05:54:43;10.70;99.90
20680;DHT22;10499;47.494;7.608;2022-10-31T05:57:09;10.70;99.90
20680;DHT22;10499;47.494;7.608;2022-10-31T05:59:34;10.70;99.90
20680;DHT22;10499;47.494;7.608;2022-10-31T06:02:00;10.70;99.90
20680;DHT22;10499;47.494;7.608;2022-10-31T06:04:26;10.80;99.90
20680;DHT22;10499;47.494;7.608;2022-10-31T06:06:52;10.90;99.90
20680;DHT22;10499;47.494;7.608;2022-10-31T06:09:20;11.10;99.90
20680;DHT22;10499;47.494;7.608;2022-10-31T06:11:46;11.10;99.90
20680;DHT22;10499;47.494;7.608;2022-10-31T06:14:11;11.20;99.90
20680;DHT22;10499;47.494;7.608;2022-10-31T06:16:37;11.20;99.90
20680;DHT22;10499;47.494;7.608;2022-10-31T06:19:03;11.10;99.90
20680;DHT22;10499;47.494;7.608;2022-10-31T06:21:28;11.10;99.90
20680;DHT22;10499;47.494;7.608;2022-10-31T06:23:54;11.20;99.90
20680;DHT22;10499;47.494;7.608;2022-10-31T06:26:19;11.20;99.90
20680;DHT22;10499;47.494;7.608;2022-10-31T06:28:45;11.20;99.90
20680;DHT22;10499;47.494;7.608;2022-10-31T06:31:11;11.30;99.90
20680;DHT22;10499;47.494;7.608;2022-10-31T06:33:36;11.30;99.90
20680;DHT22;10499;47.494;7.608;2022-10-31T06:36:02;11.40;99.90
20680;DHT22;10499;47.494;7.608;2022-10-31T06:38:28;11.50;99.90
20680;DHT22;10499;47.494;7.608;2022-10-31T06:40:54;11.40;99.90
20680;DHT22;10499;47.494;7.608;2022-10-31T06:43:21;11.40;99.90
20680;DHT22;10499;47.494;7.608;2022-10-31T06:45:47;11.40;99.90
20680;DHT22;10499;47.494;7.608;2022-10-31T06:48:13;11.40;99.90
20680;DHT22;10499;47.494;7.608;2022-10-31T06:50:38;11.50;99.90
20680;DHT22;10499;47.494;7.608;2022-10-31T06:53:08;11.50;99.90
20680;DHT22;10499;47.494;7.608;2022-10-31T06:55:33;11.60;99.90
20680;DHT22;10499;47.494;7.608;2022-10-31T06:58:00;11.70;99.90
20680;DHT22;10499;47.494;7.608;2022-10-31T07:00:30;11.80;99.90
20680;DHT22;10499;47.494;7.608;2022-10-31T07:03:06;11.80;99.90
20680;DHT22;10499;47.494;7.608;2022-10-31T07:05:32;11.80;99.90
20680;DHT22;10499;47.494;7.608;2022-10-31T07:08:03;11.90;99.90
20680;DHT22;10499;47.494;7.608;2022-10-31T07:10:31;12.00;99.90
20680;DHT22;10499;47.494;7.608;2022-10-31T07:13:04;12.20;99.90
20680;DHT22;10499;47.494;7.608;2022-10-31T07:15:40;12.40;99.90
20680;DHT22;10499;47.494;7.608;2022-10-31T07:18:11;12.60;99.90
20680;DHT22;10499;47.494;7.608;2022-10-31T07:20:40;12.90;99.90
20680;DHT22;10499;47.494;7.608;2022-10-31T07:23:06;13.30;99.90
20680;DHT22;10499;47.494;7.608;2022-10-31T07:25:31;13.20;99.90
20680;DHT22;10499;47.494;7.608;2022-10-31T07:27:57;13.40;99.90
20680;DHT22;10499;47.494;7.608;2022-10-31T07:30:23;13.40;99.90
20680;DHT22;10499;47.494;7.608;2022-10-31T07:32:50;13.30;99.90
20680;DHT22;10499;47.494;7.608;2022-10-31T07:35:27;13.20;99.90
20680;DHT22;10499;47.494;7.608;2022-10-31T07:37:53;13.20;99.90
20680;DHT22;10499;47.494;7.608;2022-10-31T07:40:20;13.30;99.90
20680;DHT22;10499;47.494;7.608;2022-10-31T07:42:48;13.30;99.90
20680;DHT22;10499;47.494;7.608;2022-10-31T07:45:16;13.40;99.90
20680;DHT22;10499;47.494;7.608;2022-10-31T07:47:48;13.40;99.90
20680;DHT22;10499;47.494;7.608;2022-10-31T07:50:26;13.50;99.90
20680;DHT22;10499;47.494;7.608;2022-10-31T07:52:59;13.70;99.90
20680;DHT22;10499;47.494;7.608;2022-10-31T07:55:31;13.80;99.90
20680;DHT22;10499;47.494;7.608;2022-10-31T07:58:15;13.80;99.90
20680;DHT22;10499;47.494;7.608;2022-10-31T08:01:07;13.90;99.90
20680;DHT22;10499;47.494;7.608;2022-10-31T08:03:40;13.90;99.90
20680;DHT22;10499;47.494;7.608;2022-10-31T08:06:29;13.90;99.90
20680;DHT22;10499;47.494;7.608;2022-10-31T08:09:08;13.80;99.90
20680;DHT22;10499;47.494;7.608;2022-10-31T08:12:04;13.90;99.90
20680;DHT22;10499;47.494;7.608;2022-10-31T08:15:02;14.10;99.90
20680;DHT22;10499;47.494;7.608;2022-10-31T08:17:28;14.20;99.90
20680;DHT22;10499;47.494;7.608;2022-10-31T08:19:55;14.30;99.90
20680;DHT22;10499;47.494;7.608;2022-10-31T08:22:20;14.40;99.90
20680;DHT22;10499;47.494;7.608;2022-10-31T08:24:48;14.50;99.90
20680;DHT22;10499;47.494;7.608;2022-10-31T08:27:14;14.70;99.90
20680;DHT22;10499;47.494;7.608;2022-10-31T08:29:43;14.90;99.90
20680;DHT22;10499;47.494;7.608;2022-10-31T08:32:08;14.90;99.90
20680;DHT22;10499;47.494;7.608;2022-10-31T08:34:34;14.80;99.90
20680;DHT22;10499;47.494;7.608;2022-10-31T08:37:00;15.00;99.90
20680;DHT22;10499;47.494;7.608;2022-10-31T08:39:25;15.10;99.90
20680;DHT22;10499;47.494;7.608;2022-10-31T08:41:51;15.30;99.90
20680;DHT22;10499;47.494;7.608;2022-10-31T08:44:16;15.50;99.90
20680;DHT22;10499;47.494;7.608;2022-10-31T08:46:42;15.40;99.90
20680;DHT22;10499;47.494;7.608;2022-10-31T08:49:08;15.50;99.90
20680;DHT22;10499;47.494;7.608;2022-10-31T08:51:33;15.60;99.90
20680;DHT22;10499;47.494;7.608;2022-10-31T08:53:59;15.60;99.90
20680;DHT22;10499;47.494;7.608;2022-10-31T08:56:25;15.80;99.90
20680;DHT22;10499;47.494;7.608;2022-10-31T08:58:53;16.10;99.90
20680;DHT22;10499;47.494;7.608;2022-10-31T09:01:18;16.20;99.90
20680;DHT22;10499;47.494;7.608;2022-10-31T09:03:44;16.90;99.90
20680;DHT22;10499;47.494;7.608;2022-10-31T09:06:10;17.10;99.90
20680;DHT22;10499;47.494;7.608;2022-10-31T09:08:35;17.30;99.90
20680;DHT22;10499;47.494;7.608;2022-10-31T09:11:02;18.10;99.90
20680;DHT22;10499;47.494;7.608;2022-10-31T09:13:27;18.40;99.90
20680;DHT22;10499;47.494;7.608;2022-10-31T09:15:53;18.60;99.90
20680;DHT22;10499;47.494;7.608;2022-10-31T09:18:21;18.60;99.90
20680;DHT22;10499;47.494;7.608;2022-10-31T09:20:48;18.50;99.90
20680;DHT22;10499;47.494;7.608;2022-10-31T09:23:16;18.20;99.90
20680;DHT22;10499;47.494;7.608;2022-10-31T09:25:42;17.80;99.90
20680;DHT22;10499;47.494;7.608;2022-10-31T09:28:12;17.70;99.90
20680;DHT22;10499;47.494;7.608;2022-10-31T09:30:39;17.50;99.90
20680;DHT22;10499;47.494;7.608;2022-10-31T09:33:12;17.40;99.90
20680;DHT22;10499;47.494;7.608;2022-10-31T09:35:39;17.50;99.90
20680;DHT22;10499;47.494;7.608;2022-10-31T09:38:08;17.50;99.90
20680;DHT22;10499;47.494;7.608;2022-10-31T09:40:39;17.50;99.90
20680;DHT22;10499;47.494;7.608;2022-10-31T09:51:34;17.00;99.90
20680;DHT22;10499;47.494;7.608;2022-10-31T09:54:11;17.00;99.90
20680;DHT22;10499;47.494;7.608;2022-10-31T09:56:38;16.80;99.90
20680;DHT22;10499;47.494;7.608;2022-10-31T09:59:09;16.80;99.90
20680;DHT22;10499;47.494;7.608;2022-10-31T10:04:34;17.10;99.90
20680;DHT22;10499;47.494;7.608;2022-10-31T10:09:52;17.70;99.90
20680;DHT22;10499;47.494;7.608;2022-10-31T10:29:56;25.90;64.70
20680;DHT22;10499;47.494;7.608;2022-10-31T10:32:27;24.70;68.30
20680;DHT22;10499;47.494;7.608;2022-10-31T10:35:03;24.30;69.80
20680;DHT22;10499;47.494;7.608;2022-10-31T10:37:45;23.50;72.30
20680;DHT22;10499;47.494;7.608;2022-10-31T10:40:24;24.00;71.80
20680;DHT22;10499;47.494;7.608;2022-10-31T10:51:59;29.00;55.70
20680;DHT22;10499;47.494;7.608;2022-10-31T10:54:49;31.10;51.60
20680;DHT22;10499;47.494;7.608;2022-10-31T18:16:16;15.30;99.90
20680;DHT22;10499;47.494;7.608;2022-10-31T20:05:25;13.50;99.90
